createdAt,value
2023-02-05T00:01:02.154Z,94557.22
2023-02-05T00:03:30.067Z,94580.94
2023-02-05T00:05:58.002Z,94591.66
2023-02-05T00:08:27.589Z,94579.03
2023-02-05T00:10:55.615Z,94583.88
2023-02-05T00:13:23.792Z,94584.19
2023-02-05T00:15:53.145Z,94595.81
2023-02-05T00:18:21.314Z,94594.91
2023-02-05T00:20:49.222Z,94598.78
2023-02-05T00:23:17.158Z,94589.84
2023-02-05T00:25:45.065Z,94602.09
2023-02-05T00:28:13.344Z,94595.00
2023-02-05T00:30:42.665Z,94588.75
2023-02-05T00:33:12.176Z,94597.34
2023-02-05T00:35:40.155Z,94596.34
2023-02-05T00:38:08.116Z,94600.53
2023-02-05T00:40:36.313Z,94605.22
2023-02-05T00:43:04.229Z,94642.41
2023-02-05T00:45:35.433Z,94630.88
2023-02-05T00:48:03.813Z,94610.91
2023-02-05T00:50:33.814Z,94616.97
2023-02-05T00:53:01.815Z,94607.28
2023-02-05T00:55:30.087Z,94615.31
2023-02-05T00:57:58.302Z,94623.91
2023-02-05T01:00:27.009Z,94632.53
2023-02-05T01:02:55.143Z,94627.44
2023-02-05T01:05:23.242Z,94630.56
2023-02-05T01:07:52.580Z,94609.59
2023-02-05T01:10:20.926Z,94623.50
2023-02-05T01:12:50.250Z,94619.25
2023-02-05T01:15:18.677Z,94616.16
2023-02-05T01:17:46.633Z,94615.59
2023-02-05T01:20:15.813Z,94632.50
2023-02-05T01:22:44.387Z,94640.72
2023-02-05T01:25:13.726Z,94620.25
2023-02-05T01:27:41.781Z,94626.97
2023-02-05T01:30:12.603Z,94625.50
2023-02-05T01:32:41.751Z,94620.00
2023-02-05T01:35:10.552Z,94635.06
2023-02-05T01:37:38.526Z,94624.59
2023-02-05T01:40:07.370Z,94617.47
2023-02-05T01:42:36.647Z,94630.38
2023-02-05T01:45:55.149Z,94630.09
2023-02-05T01:48:28.483Z,94633.59
2023-02-05T01:51:00.438Z,94631.78
2023-02-05T01:53:31.087Z,94627.78
2023-02-05T01:56:02.668Z,94639.56
2023-02-05T01:58:36.039Z,94636.13
2023-02-05T02:01:04.145Z,94658.41
2023-02-05T02:03:32.843Z,94655.38
2023-02-05T02:06:00.844Z,94639.31
2023-02-05T02:08:28.902Z,94650.19
2023-02-05T02:10:59.411Z,94643.09
2023-02-05T02:13:29.261Z,94663.03
2023-02-05T02:15:59.481Z,94650.78
2023-02-05T02:18:29.149Z,94646.50
2023-02-05T02:21:44.403Z,94660.00
2023-02-05T02:24:42.705Z,94666.16
2023-02-05T02:27:22.417Z,94669.88
2023-02-05T02:29:56.532Z,94661.78
2023-02-05T02:32:32.845Z,94666.34
2023-02-05T02:35:07.285Z,94656.88
2023-02-05T02:37:41.116Z,94662.19
2023-02-05T02:40:16.758Z,94670.38
2023-02-05T02:42:50.366Z,94654.88
2023-02-05T02:45:23.789Z,94662.66
2023-02-05T02:47:57.965Z,94673.91
2023-02-05T02:50:32.848Z,94677.34
2023-02-05T02:53:05.690Z,94673.84
2023-02-05T02:55:38.844Z,94674.81
2023-02-05T02:58:10.411Z,94675.78
2023-02-05T03:00:42.985Z,94673.03
2023-02-05T03:03:14.550Z,94648.22
2023-02-05T03:05:44.609Z,94668.94
2023-02-05T03:08:17.715Z,94673.25
2023-02-05T03:10:48.990Z,94697.88
2023-02-05T03:13:17.148Z,94704.63
2023-02-05T03:15:47.912Z,94683.13
2023-02-05T03:18:18.515Z,94727.31
2023-02-05T03:20:50.806Z,94700.88
2023-02-05T03:23:18.938Z,94700.19
2023-02-05T03:25:46.918Z,94695.63
2023-02-05T03:28:15.453Z,94702.34
2023-02-05T03:30:57.967Z,94719.50
2023-02-05T03:33:40.613Z,94703.69
2023-02-05T03:36:17.612Z,94707.03
2023-02-05T03:39:05.791Z,94703.53
2023-02-05T03:41:58.386Z,94689.84
2023-02-05T03:44:51.115Z,94700.78
2023-02-05T03:47:27.667Z,94687.75
2023-02-05T03:50:07.951Z,94703.53
2023-02-05T03:52:43.205Z,94694.38
2023-02-05T03:55:17.094Z,94713.88
2023-02-05T03:57:51.809Z,94705.13
2023-02-05T04:00:20.214Z,94709.63
2023-02-05T04:02:49.625Z,94686.06
2023-02-05T04:05:17.852Z,94713.66
2023-02-05T04:07:45.732Z,94726.16
2023-02-05T04:10:13.630Z,94722.66
2023-02-05T04:12:41.796Z,94723.13
2023-02-05T04:15:10.922Z,94723.53
2023-02-05T04:17:38.918Z,94721.09
2023-02-05T04:20:09.709Z,94732.06
2023-02-05T04:22:37.777Z,94722.81
2023-02-05T04:25:06.177Z,94733.06
2023-02-05T04:27:34.896Z,94730.53
2023-02-05T04:30:02.826Z,94720.41
2023-02-05T04:32:30.702Z,94705.94
2023-02-05T04:34:58.598Z,94747.53
2023-02-05T04:37:27.895Z,94745.56
2023-02-05T04:39:55.797Z,94732.38
2023-02-05T04:42:23.721Z,94741.91
2023-02-05T04:44:52.908Z,94725.13
2023-02-05T04:47:21.074Z,94737.72
2023-02-05T04:49:48.968Z,94748.78
2023-02-05T04:52:16.852Z,94755.97
2023-02-05T04:54:46.166Z,94751.13
2023-02-05T04:57:14.061Z,94746.72
2023-02-05T04:59:42.207Z,94746.59
2023-02-05T05:02:10.136Z,94742.56
2023-02-05T05:04:38.469Z,94761.56
2023-02-05T05:07:06.398Z,94754.25
2023-02-05T05:09:34.331Z,94768.69
2023-02-05T05:12:03.628Z,94762.88
2023-02-05T05:14:31.617Z,94773.25
2023-02-05T05:16:59.529Z,94763.13
2023-02-05T05:19:27.540Z,94763.13
2023-02-05T05:21:55.460Z,94766.59
2023-02-05T05:24:23.366Z,94773.50
2023-02-05T05:26:51.320Z,94780.13
2023-02-05T05:29:20.664Z,94775.59
2023-02-05T05:31:48.752Z,94776.44
2023-02-05T05:34:17.088Z,94782.59
2023-02-05T05:36:45.422Z,94788.41
2023-02-05T05:39:30.534Z,94784.03
2023-02-05T05:42:15.985Z,94792.56
2023-02-05T05:44:50.158Z,94800.09
2023-02-05T05:47:18.404Z,94796.97
2023-02-05T05:49:46.412Z,94805.38
2023-02-05T05:52:14.625Z,94801.34
2023-02-05T05:54:42.628Z,94805.28
2023-02-05T05:57:10.777Z,94805.28
2023-02-05T05:59:38.742Z,94810.22
2023-02-05T06:02:08.725Z,94819.59
2023-02-05T06:04:36.738Z,94817.94
2023-02-05T06:07:04.711Z,94824.31
2023-02-05T06:09:32.666Z,94829.44
2023-02-05T06:12:00.810Z,94814.53
2023-02-05T06:14:28.812Z,94838.81
2023-02-05T06:16:56.721Z,94831.72
2023-02-05T06:19:26.242Z,94845.25
2023-02-05T06:21:54.106Z,94847.94
2023-02-05T06:24:22.100Z,94845.53
2023-02-05T06:26:50.048Z,94850.66
2023-02-05T06:29:18.050Z,94844.56
2023-02-05T06:31:46.266Z,94843.94
2023-02-05T06:34:14.260Z,94851.91
2023-02-05T06:36:43.660Z,94862.28
2023-02-05T06:39:11.528Z,94863.75
2023-02-05T06:41:39.866Z,94871.13
2023-02-05T06:44:08.034Z,94861.16
2023-02-05T06:46:35.993Z,94872.00
2023-02-05T06:49:03.978Z,94883.72
2023-02-05T06:51:32.176Z,94889.13
2023-02-05T06:54:02.515Z,94886.81
2023-02-05T06:56:30.826Z,94886.06
2023-02-05T06:58:58.747Z,94893.84
2023-02-05T07:01:26.753Z,94884.63
2023-02-05T07:03:56.292Z,94898.81
2023-02-05T07:06:24.948Z,94898.09
2023-02-05T07:08:53.388Z,94906.31
2023-02-05T07:11:27.748Z,94898.59
2023-02-05T07:13:56.800Z,94914.81
2023-02-05T07:16:24.727Z,94908.06
2023-02-05T07:18:53.742Z,94912.50
2023-02-05T07:21:22.306Z,94916.47
2023-02-05T07:23:51.005Z,94920.09
2023-02-05T07:26:19.867Z,94919.50
2023-02-05T07:28:49.304Z,94925.03
2023-02-05T07:31:20.001Z,94927.47
2023-02-05T07:33:48.904Z,94931.53
2023-02-05T07:36:18.839Z,94929.13
2023-02-05T07:38:48.460Z,94926.94
2023-02-05T07:41:17.556Z,94922.81
2023-02-05T07:43:45.954Z,94931.81
2023-02-05T07:46:16.320Z,94926.25
2023-02-05T07:48:44.442Z,94942.06
2023-02-05T07:51:18.319Z,94943.47
2023-02-05T07:53:46.774Z,94948.91
2023-02-05T07:56:15.557Z,94939.97
2023-02-05T07:58:43.991Z,94948.31
2023-02-05T08:01:12.043Z,94940.38
2023-02-05T08:03:41.509Z,94963.41
2023-02-05T08:06:14.026Z,94961.59
2023-02-05T08:08:42.008Z,94974.63
2023-02-05T08:11:15.303Z,94975.53
2023-02-05T08:13:43.586Z,94961.81
2023-02-05T08:16:12.532Z,94958.72
2023-02-05T08:18:42.126Z,94974.66
2023-02-05T08:21:10.095Z,94971.06
2023-02-05T08:23:38.058Z,94958.84
2023-02-05T08:26:06.175Z,94978.66
2023-02-05T08:28:34.110Z,94982.84
2023-02-05T08:31:02.029Z,94989.94
2023-02-05T08:33:30.150Z,94970.47
2023-02-05T08:36:00.461Z,94978.03
2023-02-05T08:38:28.547Z,94995.19
2023-02-05T08:40:57.925Z,94995.84
2023-02-05T08:43:25.904Z,94995.53
2023-02-05T08:45:54.304Z,94990.91
2023-02-05T08:48:23.110Z,95007.72
2023-02-05T08:50:51.116Z,95005.84
2023-02-05T08:53:20.429Z,95010.09
2023-02-05T08:55:56.125Z,95003.41
2023-02-05T08:58:24.126Z,95014.19
2023-02-05T09:00:52.556Z,95024.13
2023-02-05T09:03:20.555Z,95021.47
2023-02-05T09:05:48.479Z,95020.31
2023-02-05T09:08:16.688Z,95035.59
2023-02-05T09:10:46.452Z,95038.94
2023-02-05T09:13:14.398Z,95036.38
2023-02-05T09:15:43.738Z,95040.75
2023-02-05T09:18:11.647Z,95036.69
2023-02-05T09:20:43.176Z,95042.63
2023-02-05T09:23:12.005Z,95053.81
2023-02-05T09:25:42.463Z,95051.69
2023-02-05T09:28:14.260Z,95052.34
2023-02-05T09:30:44.320Z,95034.09
2023-02-05T09:33:13.235Z,95047.28
2023-02-05T09:35:41.454Z,95050.56
2023-02-05T09:38:09.801Z,95060.75
2023-02-05T09:40:43.530Z,95055.84
2023-02-05T09:43:28.753Z,95058.00
2023-02-05T09:46:02.750Z,95065.88
2023-02-05T09:48:49.846Z,95055.63
2023-02-05T09:51:21.083Z,95070.28
2023-02-05T09:53:56.226Z,95070.38
2023-02-05T09:56:25.679Z,95056.25
2023-02-05T09:58:57.944Z,95056.97
2023-02-05T10:01:37.207Z,95053.09
2023-02-05T10:04:07.976Z,95070.28
2023-02-05T10:06:51.142Z,95052.00
2023-02-05T10:09:47.134Z,95067.44
2023-02-05T10:12:27.158Z,95035.75
2023-02-05T10:15:11.380Z,95039.69
2023-02-05T10:17:55.862Z,95075.66
2023-02-05T10:20:39.472Z,95070.22
2023-02-05T10:23:15.830Z,95065.56
2023-02-05T10:25:56.396Z,95066.38
2023-02-05T10:28:49.832Z,95063.66
2023-02-05T10:31:28.866Z,95066.47
2023-02-05T10:34:05.533Z,95075.06
2023-02-05T10:36:34.525Z,95072.50
2023-02-05T10:39:02.904Z,95066.69
2023-02-05T10:41:37.192Z,95074.41
2023-02-05T10:44:13.210Z,95064.97
2023-02-05T10:46:46.137Z,95061.03
2023-02-05T10:49:19.831Z,95066.97
2023-02-05T10:51:47.793Z,95068.56
2023-02-05T10:54:20.778Z,95070.22
2023-02-05T10:56:49.309Z,95066.84
2023-02-05T10:59:24.290Z,95046.78
2023-02-05T11:01:56.957Z,95068.41
2023-02-05T11:04:38.823Z,95070.50
2023-02-05T11:07:13.498Z,95064.88
2023-02-05T11:09:41.599Z,95074.41
2023-02-05T11:12:20.952Z,95068.41
2023-02-05T11:14:57.960Z,95070.81
2023-02-05T11:17:33.854Z,95072.16
2023-02-05T11:20:04.575Z,95074.47
2023-02-05T11:22:35.182Z,95077.06
2023-02-05T11:25:08.874Z,95068.44
2023-02-05T11:27:38.525Z,95077.88
2023-02-05T11:30:47.962Z,95060.56
2023-02-05T11:33:32.780Z,95074.53
2023-02-05T11:36:03.515Z,95060.94
2023-02-05T11:38:43.309Z,95071.16
2023-02-05T11:41:13.975Z,95071.34
2023-02-05T11:43:50.424Z,95054.84
2023-02-05T11:46:21.857Z,95064.94
2023-02-05T11:48:58.662Z,95059.28
2023-02-05T11:51:39.482Z,95058.75
2023-02-05T11:54:20.463Z,95059.47
2023-02-05T11:57:05.163Z,95059.28
2023-02-05T11:59:33.792Z,95066.06
2023-02-05T12:02:35.110Z,95071.31
2023-02-05T12:05:13.462Z,95055.72
2023-02-05T12:07:46.226Z,95062.28
2023-02-05T12:10:17.763Z,95065.97
2023-02-05T12:12:57.878Z,95059.97
2023-02-05T12:15:29.460Z,95059.13
2023-02-05T12:18:11.465Z,95057.63
2023-02-05T12:20:50.692Z,95044.81
2023-02-05T12:23:31.101Z,95058.16
2023-02-05T12:26:30.993Z,95056.09
2023-02-05T12:29:13.151Z,95062.97
2023-02-05T12:31:53.002Z,95062.00
2023-02-05T12:34:29.504Z,95069.72
2023-02-05T12:37:17.578Z,95073.34
2023-02-05T12:39:50.040Z,95044.09
2023-02-05T12:42:31.143Z,95058.69
2023-02-05T12:45:30.665Z,95068.34
2023-02-05T12:48:11.164Z,95056.13
2023-02-05T12:50:57.537Z,95062.94
2023-02-05T12:53:41.506Z,95068.69
2023-02-05T12:56:23.995Z,95062.09
2023-02-05T12:58:55.820Z,95067.66
2023-02-05T13:01:37.991Z,95065.34
2023-02-05T13:04:10.985Z,95066.81
2023-02-05T13:06:45.115Z,95056.06
2023-02-05T13:09:20.431Z,95064.31
2023-02-05T13:11:57.302Z,95049.19
2023-02-05T13:14:31.305Z,95061.50
2023-02-05T13:17:04.194Z,95069.50
2023-02-05T13:19:36.334Z,95064.97
2023-02-05T13:22:31.296Z,95061.66
2023-02-05T13:25:27.362Z,95061.09
2023-02-05T13:28:31.411Z,95067.38
2023-02-05T13:31:02.084Z,95069.09
2023-02-05T13:33:30.308Z,95057.34
2023-02-05T13:36:12.122Z,95063.63
2023-02-05T13:38:57.439Z,95054.63
2023-02-05T13:41:38.460Z,95072.34
2023-02-05T13:44:25.226Z,95082.16
2023-02-05T13:47:27.209Z,95084.84
2023-02-05T13:50:28.486Z,95087.81
2023-02-05T13:53:10.048Z,95089.81
2023-02-05T13:55:55.457Z,95080.53
2023-02-05T13:58:44.377Z,95092.56
2023-02-05T14:01:18.905Z,95087.00
2023-02-05T14:03:59.114Z,95079.53
2023-02-05T14:06:30.997Z,95076.56
2023-02-05T14:09:02.951Z,95081.19
2023-02-05T14:11:45.151Z,95096.63
2023-02-05T14:14:26.798Z,95074.91
2023-02-05T14:16:56.158Z,95086.66
2023-02-05T14:19:26.897Z,95092.97
2023-02-05T14:22:07.282Z,95093.59
2023-02-05T14:24:47.585Z,95081.88
2023-02-05T14:27:47.685Z,95083.50
2023-02-05T14:30:48.971Z,95080.97
2023-02-05T14:33:38.843Z,95090.00
2023-02-05T14:36:41.811Z,95085.66
2023-02-05T14:39:26.234Z,95090.59
2023-02-05T14:41:58.988Z,95088.44
2023-02-05T14:44:29.727Z,95094.16
2023-02-05T14:47:05.430Z,95094.03
2023-02-05T14:49:42.645Z,95096.94
2023-02-05T14:52:25.291Z,95094.47
2023-02-05T14:54:59.514Z,95083.66
2023-02-05T14:57:32.782Z,95095.78
2023-02-05T15:00:03.679Z,95101.56
2023-02-05T15:03:02.661Z,95104.69
2023-02-05T15:05:38.962Z,95103.31
2023-02-05T15:08:13.692Z,95108.00
2023-02-05T15:10:50.070Z,95114.97
2023-02-05T15:13:19.655Z,95107.06
2023-02-05T15:16:17.849Z,95107.06
2023-02-05T15:18:48.258Z,95114.78
2023-02-05T15:21:25.532Z,95102.78
2023-02-05T15:24:00.328Z,95114.00
2023-02-05T15:26:37.792Z,95118.31
2023-02-05T15:29:10.666Z,95122.03
2023-02-05T15:31:45.591Z,95122.41
2023-02-05T15:34:34.013Z,95125.06
2023-02-05T15:37:16.352Z,95119.75
2023-02-05T15:39:49.994Z,95110.38
2023-02-05T15:42:22.232Z,95125.84
2023-02-05T15:44:50.539Z,95114.75
2023-02-05T15:47:24.448Z,95117.34
2023-02-05T15:49:54.949Z,95124.88
2023-02-05T15:52:26.665Z,95126.66
2023-02-05T15:54:57.179Z,95120.78
2023-02-05T15:57:29.252Z,95123.69
2023-02-05T15:59:59.837Z,95128.50
2023-02-05T16:02:29.524Z,95133.59
2023-02-05T16:04:59.980Z,95134.63
2023-02-05T16:07:32.425Z,95139.63
2023-02-05T16:10:04.412Z,95127.34
2023-02-05T16:12:32.608Z,95140.66
2023-02-05T16:15:02.427Z,95148.91
2023-02-05T16:17:37.151Z,95131.72
2023-02-05T16:20:22.264Z,95151.56
2023-02-05T16:22:55.592Z,95156.56
2023-02-05T16:25:38.528Z,95147.38
2023-02-05T16:28:14.448Z,95153.22
2023-02-05T16:30:44.584Z,95151.38
2023-02-05T16:33:26.453Z,95140.88
2023-02-05T16:35:57.536Z,95157.66
2023-02-05T16:38:28.330Z,95148.41
2023-02-05T16:40:59.875Z,95148.41
2023-02-05T16:43:32.613Z,95145.72
2023-02-05T16:46:29.702Z,95145.38
2023-02-05T16:49:00.059Z,95145.63
2023-02-05T16:51:35.370Z,95152.97
2023-02-05T16:54:28.655Z,95152.81
2023-02-05T16:57:00.999Z,95141.81
2023-02-05T16:59:33.750Z,95155.75
2023-02-05T17:02:03.440Z,95156.00
2023-02-05T17:04:34.746Z,95152.19
2023-02-05T17:07:04.752Z,95161.69
2023-02-05T17:09:37.514Z,95172.66
2023-02-05T17:12:39.152Z,95173.44
2023-02-05T17:15:42.449Z,95166.38
2023-02-05T17:18:37.541Z,95161.56
2023-02-05T17:21:23.006Z,95161.56
2023-02-05T17:23:51.827Z,95166.13
2023-02-05T17:26:22.119Z,95172.97
2023-02-05T17:28:53.870Z,95163.06
2023-02-05T17:31:26.158Z,95162.81
2023-02-05T17:33:55.880Z,95161.81
2023-02-05T17:36:24.042Z,95167.78
2023-02-05T17:38:52.967Z,95156.72
2023-02-05T17:41:43.160Z,95166.25
2023-02-05T17:44:13.374Z,95155.38
2023-02-05T17:46:41.766Z,95161.44
2023-02-05T17:49:10.064Z,95155.84
2023-02-05T17:51:42.696Z,95160.97
2023-02-05T17:54:15.725Z,95162.63
2023-02-05T17:56:45.818Z,95147.75
2023-02-05T17:59:16.085Z,95172.88
2023-02-05T18:01:44.229Z,95152.97
2023-02-05T18:04:13.623Z,95160.41
2023-02-05T18:06:44.098Z,95168.00
2023-02-05T18:09:13.595Z,95191.59
2023-02-05T18:11:42.931Z,95177.47
2023-02-05T18:14:12.696Z,95173.47
2023-02-05T18:16:41.478Z,95176.66
2023-02-05T18:19:09.914Z,95161.38
2023-02-05T18:21:38.976Z,95184.19
2023-02-05T18:24:30.147Z,95171.72
2023-02-05T18:26:58.285Z,95171.00
2023-02-05T18:32:24.233Z,95168.97
2023-02-05T18:34:53.425Z,95161.22
2023-02-05T18:40:17.376Z,95145.38
2023-02-05T18:42:47.162Z,95162.44
2023-02-05T18:45:21.578Z,95170.28
2023-02-05T18:47:49.624Z,95160.69
2023-02-05T18:50:18.495Z,95156.31
2023-02-05T18:52:48.391Z,95165.34
2023-02-05T18:55:18.028Z,95163.81
2023-02-05T18:57:46.657Z,95161.03
2023-02-05T19:00:17.608Z,95153.69
2023-02-05T19:02:45.815Z,95170.63
2023-02-05T19:05:13.847Z,95173.25
2023-02-05T19:07:43.071Z,95171.06
2023-02-05T19:10:11.591Z,95159.16
2023-02-05T19:12:39.744Z,95151.88
2023-02-05T19:15:09.477Z,95160.50
2023-02-05T19:17:39.591Z,95159.00
2023-02-05T19:20:09.104Z,95164.88
2023-02-05T19:22:38.479Z,95162.63
2023-02-05T19:25:07.188Z,95161.81
2023-02-05T19:27:35.417Z,95159.28
2023-02-05T19:30:03.641Z,95167.47
2023-02-05T19:32:31.866Z,95171.53
2023-02-05T19:35:03.338Z,95169.81
2023-02-05T19:37:31.887Z,95180.00
2023-02-05T19:40:00.504Z,95160.88
2023-02-05T19:42:30.424Z,95169.94
2023-02-05T19:44:58.819Z,95183.31
2023-02-05T19:47:28.942Z,95171.94
2023-02-05T19:49:57.447Z,95162.69
2023-02-05T19:52:27.786Z,95169.16
2023-02-05T19:54:56.822Z,95169.00
2023-02-05T19:57:25.138Z,95143.75
2023-02-05T19:59:53.245Z,95167.06
2023-02-05T20:02:21.867Z,95171.75
2023-02-05T20:04:50.315Z,95178.47
2023-02-05T20:07:18.420Z,95177.09
2023-02-05T20:09:50.275Z,95181.94
2023-02-05T20:12:19.849Z,95186.31
2023-02-05T20:14:47.988Z,95177.47
2023-02-05T20:17:17.765Z,95173.28
2023-02-05T20:19:45.740Z,95171.41
2023-02-05T20:22:13.726Z,95186.19
2023-02-05T20:24:41.738Z,95191.44
2023-02-05T20:27:13.545Z,95192.28
2023-02-05T20:29:59.208Z,95171.94
2023-02-05T20:32:27.203Z,95184.25
2023-02-05T20:34:55.999Z,95180.41
2023-02-05T20:37:24.142Z,95199.38
2023-02-05T20:39:53.613Z,95201.19
2023-02-05T20:42:23.098Z,95202.03
2023-02-05T20:44:51.311Z,95204.66
2023-02-05T20:47:21.748Z,95202.91
2023-02-05T20:49:50.117Z,95203.06
2023-02-05T20:52:18.247Z,95207.50
2023-02-05T20:54:48.975Z,95204.22
2023-02-05T20:57:19.152Z,95215.94
2023-02-05T20:59:50.067Z,95222.88
2023-02-05T21:02:19.526Z,95184.63
2023-02-05T21:04:50.314Z,95209.09
2023-02-05T21:07:22.554Z,95204.22
2023-02-05T21:09:50.762Z,95204.22
2023-02-05T21:12:19.167Z,95216.47
2023-02-05T21:14:48.198Z,95213.75
2023-02-05T21:17:18.019Z,95212.88
2023-02-05T21:19:46.016Z,95197.13
2023-02-05T21:22:14.462Z,95217.59
2023-02-05T21:24:42.460Z,95217.28
2023-02-05T21:27:10.436Z,95217.75
2023-02-05T21:29:38.465Z,95205.31
2023-02-05T21:32:08.135Z,95199.91
2023-02-05T21:34:37.682Z,95207.38
2023-02-05T21:37:05.690Z,95220.47
2023-02-05T21:39:33.944Z,95221.63
2023-02-05T21:42:02.498Z,95217.75
2023-02-05T21:44:30.861Z,95219.41
2023-02-05T21:46:58.985Z,95228.66
2023-02-05T21:49:26.909Z,95241.47
2023-02-05T21:51:56.378Z,95234.59
2023-02-05T21:54:25.663Z,95220.34
2023-02-05T21:56:54.475Z,95229.66
2023-02-05T21:59:23.207Z,95238.50
2023-02-05T22:01:52.779Z,95216.94
2023-02-05T22:04:20.782Z,95241.72
2023-02-05T22:06:48.936Z,95242.84
2023-02-05T22:09:18.427Z,95228.59
2023-02-05T22:11:46.577Z,95255.44
2023-02-05T22:14:14.595Z,95253.25
2023-02-05T22:16:42.803Z,95251.47
2023-02-05T22:19:11.073Z,95261.50
2023-02-05T22:21:41.318Z,95269.91
2023-02-05T22:24:14.052Z,95257.53
2023-02-05T22:26:44.816Z,95260.03
2023-02-05T22:29:14.388Z,95247.66
2023-02-05T22:31:44.486Z,95267.03
2023-02-05T22:34:14.322Z,95243.78
2023-02-05T22:36:42.343Z,95266.00
2023-02-05T22:39:10.842Z,95268.53
2023-02-05T22:41:41.322Z,95256.72
2023-02-05T22:44:12.310Z,95251.59
2023-02-05T22:46:43.019Z,95261.44
2023-02-05T22:49:15.132Z,95243.28
2023-02-05T22:51:44.658Z,95260.78
2023-02-05T22:54:14.836Z,95237.66
2023-02-05T22:56:43.162Z,95242.47
2023-02-05T22:59:13.244Z,95253.06
2023-02-05T23:01:41.568Z,95243.78
2023-02-05T23:04:10.682Z,95237.88
2023-02-05T23:06:40.220Z,95236.84
2023-02-05T23:09:10.945Z,95242.25
2023-02-05T23:11:39.123Z,95241.16
2023-02-05T23:14:07.779Z,95236.16
2023-02-05T23:16:39.478Z,95249.78
2023-02-05T23:19:09.820Z,95245.44
2023-02-05T23:21:38.789Z,95238.22
2023-02-05T23:24:07.821Z,95235.53
2023-02-05T23:26:42.431Z,95234.59
2023-02-05T23:29:12.836Z,95236.94
2023-02-05T23:31:42.535Z,95237.47
2023-02-05T23:34:10.662Z,95239.59
2023-02-05T23:36:38.754Z,95244.00
2023-02-05T23:39:06.864Z,95246.53
2023-02-05T23:41:37.648Z,95243.19
2023-02-05T23:44:08.384Z,95235.06
2023-02-05T23:46:37.512Z,95237.63
2023-02-05T23:49:07.590Z,95226.81
2023-02-05T23:51:35.662Z,95233.34
2023-02-05T23:54:04.094Z,95233.72
2023-02-05T23:56:32.197Z,95242.09
2023-02-05T23:59:00.575Z,95236.59
